Current | Forecast
Updated: 5:00 PM CET on February 21, 2018
Observed at Ciudad Real, Spain
Temperature 11°C
Humidity 35%
Dew Point -4°C
Wind NNE at 20 km/h
Pressure 1007 hPa (Steady)
Conditions Scattered Clouds
Visibility 10.0 kilometers
UV 1 out of 16
Clouds Scattered Clouds (SCT) : 1371 m
Yesterday's Maximum 15°C
Yesterday's Minimum 7°C approx.
Yesterday's Heating Degree Days 13 approx.
Sunrise8:00 AM CET
Sunset7:00 PM CET
Moon Rise11:12 AM CET
Moon Set
Moon PhaseMoon Phase
Waxing Crescent
Raw METARMETAR LEAO 211600Z 02011KT 320V070 9999 SCT045 11/M04 Q1007


Monday
. High: 80° F.
Tuesday
. High: 82° F.
Wednesday
. High: 71° F.
Thursday
. High: 75° F.
Friday
. High: 84° F.
Saturday
. High: 78° F.
Sunday
. High: 86° F.
Monday
. High: 91° F.

Units: English | Metric

Find the Weather for any City, State or Zipcode, or Country:

U.S. State List | Severe Weather | Tropical Storms | Ski Conditions
United States | Canada | Central America | South America | Asia | Europe | Australia | Africa | Islands

Weather Underground

© Copyright 2018
The Weather Company, LLC